createdAt,value
2023-04-08T00:01:25.118Z,9.60
2023-04-08T00:21:06.285Z,9.40
2023-04-08T00:28:28.279Z,9.40
2023-04-08T00:40:48.354Z,9.40
2023-04-08T00:45:43.800Z,9.40
2023-04-08T00:53:06.239Z,9.40
2023-04-08T01:00:30.927Z,9.30
2023-04-08T01:03:19.430Z,9.50
2023-04-08T01:06:03.291Z,9.30
2023-04-08T01:08:32.414Z,9.40
2023-04-08T01:11:02.916Z,9.40
2023-04-08T01:13:35.963Z,9.30
2023-04-08T01:18:31.785Z,9.40
2023-04-08T01:21:00.424Z,9.30
2023-04-08T01:24:02.204Z,9.10
2023-04-08T01:26:29.784Z,9.30
2023-04-08T01:28:59.772Z,9.20
2023-04-08T01:31:28.138Z,9.40
2023-04-08T01:33:56.728Z,9.30
2023-04-08T01:36:24.866Z,9.10
2023-04-08T01:38:52.128Z,9.40
2023-04-08T01:41:21.414Z,9.00
2023-04-08T01:43:49.829Z,9.40
2023-04-08T01:46:17.604Z,9.20
2023-04-08T01:48:46.237Z,9.30
2023-04-08T01:53:41.151Z,9.20
2023-04-08T01:56:13.207Z,9.30
2023-04-08T01:58:47.113Z,9.20
2023-04-08T02:01:20.286Z,9.10
2023-04-08T02:06:15.907Z,9.20
2023-04-08T02:08:43.615Z,9.00
2023-04-08T02:11:11.146Z,8.90
2023-04-08T02:13:38.202Z,10.20
2023-04-08T02:16:47.599Z,9.10
2023-04-08T02:19:31.572Z,9.10
2023-04-08T02:22:06.846Z,9.10
2023-04-08T02:24:36.095Z,9.10
2023-04-08T02:27:04.764Z,9.10
2023-04-08T02:29:32.916Z,8.90
2023-04-08T02:32:02.529Z,9.00
2023-04-08T02:34:31.152Z,9.10
2023-04-08T02:39:33.497Z,8.20
2023-04-08T02:44:28.210Z,9.20
2023-04-08T02:49:23.269Z,8.90
2023-04-08T02:51:50.332Z,9.00
2023-04-08T02:54:17.364Z,9.10
2023-04-08T02:56:44.634Z,10.10
2023-04-08T02:59:11.624Z,8.90
2023-04-08T03:04:06.564Z,9.10
2023-04-08T03:09:01.219Z,8.90
2023-04-08T03:11:28.307Z,8.10
2023-04-08T03:13:56.088Z,8.90
2023-04-08T03:16:23.204Z,9.00
2023-04-08T03:21:18.887Z,8.90
2023-04-08T03:31:08.568Z,9.00
2023-04-08T03:33:35.817Z,8.80
2023-04-08T03:36:02.822Z,8.90
2023-04-08T03:38:29.795Z,8.80
2023-04-08T03:43:25.647Z,8.60
2023-04-08T03:50:47.915Z,8.80
2023-04-08T03:53:15.156Z,8.70
2023-04-08T03:55:42.185Z,8.70
2023-04-08T03:58:09.293Z,8.70
2023-04-08T04:00:36.910Z,8.40
2023-04-08T04:03:04.028Z,8.70
2023-04-08T04:07:58.626Z,8.30
2023-04-08T04:12:53.122Z,8.80
2023-04-08T04:15:20.224Z,8.70
2023-04-08T04:17:50.858Z,9.20
2023-04-08T04:20:18.776Z,8.70
2023-04-08T04:22:45.845Z,7.60
2023-04-08T04:25:13.195Z,8.60
2023-04-08T04:27:40.320Z,8.70
2023-04-08T04:30:09.454Z,10.20
2023-04-08T04:35:04.534Z,8.70
2023-04-08T04:49:49.647Z,8.60
2023-04-08T04:52:16.715Z,8.80
2023-04-08T05:07:01.827Z,8.60
2023-04-08T05:09:29.895Z,8.70
2023-04-08T05:11:57.288Z,8.80
2023-04-08T05:14:24.471Z,8.60
2023-04-08T05:16:51.618Z,8.60
2023-04-08T05:19:18.651Z,8.50
2023-04-08T05:21:45.749Z,8.60
2023-04-08T05:24:12.799Z,7.50
2023-04-08T05:29:07.573Z,8.40
2023-04-08T05:31:35.082Z,8.60
2023-04-08T05:36:30.438Z,8.40
2023-04-08T05:41:24.841Z,8.40
2023-04-08T05:43:53.873Z,7.80
2023-04-08T05:51:18.005Z,8.90
2023-04-08T05:53:48.170Z,8.50
2023-04-08T05:56:15.951Z,8.30
2023-04-08T05:58:43.030Z,8.40
2023-04-08T06:01:10.043Z,8.30
2023-04-08T06:03:37.277Z,8.60
2023-04-08T06:06:04.418Z,8.40
2023-04-08T06:08:32.226Z,8.50
2023-04-08T06:10:59.342Z,8.50
2023-04-08T06:13:26.538Z,9.20
2023-04-08T06:15:54.076Z,9.70
2023-04-08T06:20:48.623Z,8.50
2023-04-08T06:28:10.716Z,8.60
2023-04-08T06:30:37.939Z,8.50
2023-04-08T06:33:05.069Z,9.10
2023-04-08T06:35:32.737Z,8.50
2023-04-08T06:37:59.806Z,8.70
2023-04-08T06:40:26.865Z,8.50
2023-04-08T06:42:54.343Z,8.50
2023-04-08T06:45:36.147Z,8.60
2023-04-08T06:48:03.351Z,8.40
2023-04-08T06:52:58.712Z,8.30
2023-04-08T06:55:25.970Z,8.70
2023-04-08T06:57:53.156Z,8.60
2023-04-08T07:00:20.663Z,8.50
2023-04-08T07:07:42.637Z,8.50
2023-04-08T07:10:11.289Z,8.60
2023-04-08T07:15:07.188Z,8.00
2023-04-08T07:17:34.214Z,8.50
2023-04-08T07:29:54.855Z,8.90
2023-04-08T07:37:18.242Z,8.60
2023-04-08T07:54:34.572Z,8.80
2023-04-08T08:06:55.654Z,8.90
2023-04-08T08:21:41.455Z,8.00
2023-04-08T08:26:39.578Z,8.90
2023-04-08T08:31:36.386Z,8.90
2023-04-08T08:34:03.804Z,8.90
2023-04-08T08:39:01.329Z,9.10
2023-04-08T08:41:33.412Z,9.10
2023-04-08T09:01:34.745Z,9.30
2023-04-08T09:06:51.261Z,10.60
2023-04-08T09:11:47.392Z,9.40
2023-04-08T09:14:25.597Z,9.20
2023-04-08T09:19:21.109Z,9.50
2023-04-08T09:22:10.223Z,9.40
2023-04-08T09:24:38.541Z,9.40
2023-04-08T09:32:06.790Z,9.60
2023-04-08T09:42:06.916Z,9.70
2023-04-08T09:44:36.264Z,9.80
2023-04-08T09:47:20.111Z,9.60
2023-04-08T09:49:55.620Z,9.70
2023-04-08T09:52:34.345Z,9.80
2023-04-08T09:55:09.519Z,9.70
2023-04-08T10:00:19.003Z,9.80
2023-04-08T10:02:59.007Z,9.70
2023-04-08T10:15:31.315Z,9.70
2023-04-08T10:20:34.962Z,9.80
2023-04-08T10:23:11.448Z,9.80
2023-04-08T10:25:48.929Z,9.90
2023-04-08T10:30:55.740Z,9.90
2023-04-08T10:36:09.743Z,10.00
2023-04-08T10:43:36.989Z,9.90
2023-04-08T10:46:05.018Z,10.00
2023-04-08T10:51:05.174Z,9.80
2023-04-08T10:53:39.947Z,9.80
2023-04-08T10:56:16.458Z,9.70
2023-04-08T10:58:59.069Z,10.00
2023-04-08T11:01:27.165Z,10.40
2023-04-08T11:07:44.493Z,9.70
2023-04-08T11:10:11.702Z,10.00
2023-04-08T11:12:38.902Z,9.60
2023-04-08T11:15:06.499Z,9.90
2023-04-08T11:17:35.520Z,9.80
2023-04-08T11:20:06.208Z,10.00
2023-04-08T11:22:34.646Z,10.00
2023-04-08T11:25:02.767Z,9.90
2023-04-08T11:27:30.090Z,9.40
2023-04-08T11:29:57.532Z,9.90
2023-04-08T11:32:25.043Z,10.00
2023-04-08T11:34:53.831Z,10.10
2023-04-08T11:37:21.169Z,10.00
2023-04-08T11:39:48.165Z,9.80
2023-04-08T11:44:56.621Z,9.80
2023-04-08T11:47:32.184Z,10.20
2023-04-08T11:49:59.458Z,9.60
2023-04-08T11:52:47.133Z,10.00
2023-04-08T11:55:28.028Z,10.00
2023-04-08T11:57:56.709Z,11.10
2023-04-08T12:00:24.519Z,10.70
2023-04-08T12:02:52.947Z,10.10
2023-04-08T12:05:20.580Z,10.00
2023-04-08T12:07:48.171Z,10.10
2023-04-08T12:10:15.454Z,10.10
2023-04-08T12:12:42.558Z,9.50
2023-04-08T12:15:10.338Z,9.40
2023-04-08T12:17:39.056Z,10.20
2023-04-08T12:20:07.682Z,10.10
2023-04-08T12:22:34.832Z,10.30
2023-04-08T12:25:03.741Z,10.30
2023-04-08T12:27:33.654Z,10.30
2023-04-08T12:30:01.355Z,10.40
2023-04-08T12:32:28.899Z,10.20
2023-04-08T12:34:56.194Z,10.20
2023-04-08T12:37:23.191Z,10.50
2023-04-08T12:39:50.163Z,10.40
2023-04-08T12:44:44.558Z,10.30
2023-04-08T12:47:11.544Z,10.40
2023-04-08T12:52:08.710Z,10.40
2023-04-08T12:54:35.822Z,9.80
2023-04-08T12:57:03.060Z,11.50
2023-04-08T12:59:30.110Z,10.40
2023-04-08T13:01:57.123Z,10.30
2023-04-08T13:04:24.082Z,10.20
2023-04-08T13:06:53.569Z,10.30
2023-04-08T13:09:20.902Z,9.90
2023-04-08T13:11:48.369Z,10.30
2023-04-08T13:14:15.573Z,10.50
2023-04-08T13:16:42.764Z,10.90
2023-04-08T13:19:09.759Z,10.30
2023-04-08T13:21:39.421Z,10.60
2023-04-08T13:24:06.673Z,11.00
2023-04-08T13:26:33.815Z,10.40
2023-04-08T13:29:01.356Z,10.50
2023-04-08T13:31:28.633Z,10.50
2023-04-08T13:33:58.132Z,10.30
2023-04-08T13:36:26.800Z,10.90
2023-04-08T13:38:54.610Z,10.70
2023-04-08T13:41:21.945Z,12.10
2023-04-08T13:43:49.074Z,11.70
2023-04-08T13:46:16.361Z,10.60
2023-04-08T13:48:43.320Z,10.00
2023-04-08T13:51:10.332Z,10.60
2023-04-08T13:53:37.449Z,10.50
2023-04-08T13:56:04.447Z,10.50
2023-04-08T13:58:31.442Z,11.80
2023-04-08T14:00:58.480Z,11.30
2023-04-08T14:03:26.573Z,10.50
2023-04-08T14:05:53.779Z,10.40
2023-04-08T14:08:25.398Z,10.40
2023-04-08T14:10:55.597Z,10.50
2023-04-08T14:13:22.690Z,10.40
2023-04-08T14:15:49.919Z,10.60
2023-04-08T14:18:19.429Z,10.50
2023-04-08T14:20:46.515Z,10.50
2023-04-08T14:25:41.029Z,10.50
2023-04-08T14:28:08.188Z,10.60
2023-04-08T14:30:36.645Z,10.60
2023-04-08T14:33:05.318Z,10.70
2023-04-08T14:35:32.624Z,10.50
2023-04-08T14:38:00.347Z,10.60
2023-04-08T14:40:27.316Z,10.60
2023-04-08T14:42:54.405Z,10.50
2023-04-08T14:47:49.012Z,10.70
2023-04-08T14:50:16.356Z,10.50
2023-04-08T14:52:45.214Z,10.20
2023-04-08T14:55:12.762Z,10.70
2023-04-08T14:57:39.981Z,10.60
2023-04-08T15:00:08.441Z,10.60
2023-04-08T15:02:35.913Z,10.20
2023-04-08T15:05:03.233Z,10.60
2023-04-08T15:07:30.307Z,9.80
2023-04-08T15:09:57.408Z,10.50
2023-04-08T15:12:24.580Z,10.50
2023-04-08T15:14:51.675Z,10.70
2023-04-08T15:17:18.714Z,10.50
2023-04-08T15:19:46.244Z,9.50
2023-04-08T15:22:13.224Z,11.70
2023-04-08T15:24:40.469Z,10.50
2023-04-08T15:27:07.575Z,9.70
2023-04-08T15:29:34.521Z,10.60
2023-04-08T15:32:01.528Z,10.60
2023-04-08T15:34:28.919Z,10.40
2023-04-08T15:36:58.466Z,9.90
2023-04-08T15:39:26.069Z,10.70
2023-04-08T15:41:53.343Z,10.30
2023-04-08T15:44:22.942Z,10.50
2023-04-08T15:46:49.961Z,10.40
2023-04-08T15:49:16.993Z,10.40
2023-04-08T15:51:44.905Z,10.50
2023-04-08T15:54:12.319Z,10.50
2023-04-08T15:56:39.507Z,10.60
2023-04-08T15:59:06.558Z,10.40
2023-04-08T16:01:33.708Z,10.50
2023-04-08T16:04:00.889Z,10.30
2023-04-08T16:06:28.137Z,10.30
2023-04-08T16:08:55.512Z,10.60
2023-04-08T16:11:23.514Z,11.70
2023-04-08T16:13:50.773Z,10.50
2023-04-08T16:16:18.101Z,10.50
2023-04-08T16:18:48.508Z,10.50
2023-04-08T16:21:15.476Z,10.40
2023-04-08T16:23:42.422Z,10.50
2023-04-08T16:26:09.344Z,10.50
2023-04-08T16:28:37.144Z,10.40
2023-04-08T16:31:04.185Z,10.10
2023-04-08T16:33:32.011Z,10.50
2023-04-08T16:36:00.567Z,9.60
2023-04-08T16:38:28.039Z,9.00
2023-04-08T16:41:04.484Z,10.40
2023-04-08T16:45:59.004Z,10.80
2023-04-08T16:48:26.105Z,10.40
2023-04-08T16:50:53.030Z,12.20
2023-04-08T16:53:20.003Z,10.30
2023-04-08T16:58:14.346Z,10.30
2023-04-08T17:00:41.523Z,10.40
2023-04-08T17:03:08.698Z,10.40
2023-04-08T17:05:35.690Z,10.00
2023-04-08T17:08:03.015Z,10.40
2023-04-08T17:10:30.008Z,9.70
2023-04-08T17:12:57.977Z,10.40
2023-04-08T17:15:25.009Z,10.30
2023-04-08T17:17:51.996Z,11.00
2023-04-08T17:20:19.033Z,10.30
2023-04-08T17:22:46.277Z,10.40
2023-04-08T17:25:13.365Z,9.90
2023-04-08T17:27:40.401Z,10.40
2023-04-08T17:30:09.537Z,10.00
2023-04-08T17:32:38.655Z,10.50
2023-04-08T17:35:06.193Z,10.30
2023-04-08T17:40:00.489Z,10.40
2023-04-08T17:42:27.435Z,10.30
2023-04-08T17:44:55.950Z,10.40
2023-04-08T17:47:23.102Z,10.30
2023-04-08T17:49:50.234Z,10.20
2023-04-08T17:54:44.573Z,10.20
2023-04-08T17:57:11.696Z,10.30
2023-04-08T17:59:38.663Z,10.30
2023-04-08T18:02:06.327Z,10.50
2023-04-08T18:04:33.642Z,10.30
2023-04-08T18:07:03.837Z,10.40
2023-04-08T18:09:31.404Z,10.10
2023-04-08T18:11:58.399Z,10.20
2023-04-08T18:14:25.389Z,10.30
2023-04-08T18:16:52.323Z,10.20
2023-04-08T18:19:19.704Z,10.20
2023-04-08T18:21:46.836Z,10.20
2023-04-08T18:24:13.796Z,9.50
2023-04-08T18:26:40.667Z,10.30
2023-04-08T18:29:07.948Z,10.10
2023-04-08T18:31:34.886Z,10.20
2023-04-08T18:34:02.148Z,10.20
2023-04-08T18:36:29.290Z,10.10
2023-04-08T18:38:56.342Z,9.60
2023-04-08T18:41:25.135Z,11.20
2023-04-08T18:43:52.655Z,10.20
2023-04-08T18:46:20.518Z,10.10
2023-04-08T18:48:49.134Z,10.20
2023-04-08T18:51:19.264Z,10.70
2023-04-08T18:53:46.398Z,10.10
2023-04-08T18:56:17.370Z,10.00
2023-04-08T18:58:46.179Z,10.20
2023-04-08T19:01:14.667Z,10.70
2023-04-08T19:03:43.414Z,10.00
2023-04-08T19:06:12.621Z,10.10
2023-04-08T19:08:39.979Z,10.10
2023-04-08T19:11:07.147Z,10.10
2023-04-08T19:13:34.132Z,10.20
2023-04-08T19:16:01.350Z,10.60
2023-04-08T19:18:28.412Z,10.00
2023-04-08T19:20:55.434Z,9.90
2023-04-08T19:23:22.356Z,9.70
2023-04-08T19:25:49.527Z,10.00
2023-04-08T19:28:16.651Z,9.80
2023-04-08T19:30:43.570Z,9.10
2023-04-08T19:33:10.839Z,9.90
2023-04-08T19:35:38.171Z,9.30
2023-04-08T19:38:05.651Z,10.00
2023-04-08T19:40:32.724Z,10.00
2023-04-08T19:42:59.753Z,10.00
2023-04-08T19:47:54.855Z,8.90
2023-04-08T19:52:49.638Z,9.90
2023-04-08T19:57:44.156Z,10.00
2023-04-08T20:00:13.986Z,10.20
2023-04-08T20:02:41.462Z,9.90
2023-04-08T20:05:14.855Z,9.90
2023-04-08T20:07:42.740Z,9.10
2023-04-08T20:10:10.408Z,9.80
2023-04-08T20:12:37.298Z,10.00
2023-04-08T20:15:04.819Z,9.80
2023-04-08T20:17:32.376Z,9.50
2023-04-08T20:19:59.453Z,9.90
2023-04-08T20:22:26.822Z,9.90
2023-04-08T20:24:53.775Z,9.80
2023-04-08T20:27:21.200Z,10.70
2023-04-08T20:29:48.100Z,9.90
2023-04-08T20:32:15.074Z,9.80
2023-04-08T20:34:42.047Z,9.70
2023-04-08T20:37:09.020Z,9.90
2023-04-08T20:39:36.087Z,9.80
2023-04-08T20:42:05.278Z,8.80
2023-04-08T20:44:32.295Z,9.80
2023-04-08T20:46:59.359Z,9.70
2023-04-08T20:49:26.733Z,9.60
2023-04-08T20:51:53.669Z,10.10
2023-04-08T20:54:20.709Z,10.10
2023-04-08T20:59:15.054Z,10.50
2023-04-08T21:04:09.822Z,9.60
2023-04-08T21:06:37.605Z,9.60
2023-04-08T21:11:31.942Z,9.70
2023-04-08T21:13:59.046Z,9.40
2023-04-08T21:16:26.088Z,9.50
2023-04-08T21:18:53.262Z,9.60
2023-04-08T21:21:20.541Z,9.80
2023-04-08T21:23:47.606Z,9.60
2023-04-08T21:26:14.578Z,9.10
2023-04-08T21:28:41.616Z,10.80
2023-04-08T21:33:40.317Z,9.60
2023-04-08T21:36:07.912Z,10.20
2023-04-08T21:38:35.127Z,9.60
2023-04-08T21:41:02.196Z,9.60
2023-04-08T21:45:56.796Z,9.50
2023-04-08T21:48:23.891Z,9.40
2023-04-08T21:50:50.854Z,9.70
2023-04-08T21:53:18.303Z,9.40
2023-04-08T21:55:45.605Z,9.50
2023-04-08T21:58:12.696Z,9.40
2023-04-08T22:00:39.692Z,9.40
2023-04-08T22:03:07.690Z,9.10
2023-04-08T22:05:34.903Z,10.60
2023-04-08T22:08:02.185Z,9.30
2023-04-08T22:12:56.696Z,9.40
2023-04-08T22:17:51.382Z,9.50
2023-04-08T22:20:18.341Z,9.40
2023-04-08T22:22:45.523Z,9.30
2023-04-08T22:25:12.703Z,8.20
2023-04-08T22:27:39.767Z,9.40
2023-04-08T22:30:07.805Z,9.40
2023-04-08T22:32:34.797Z,9.20
2023-04-08T22:35:02.030Z,9.30
2023-04-08T22:37:29.112Z,9.30
2023-04-08T22:39:57.125Z,9.30
2023-04-08T22:42:24.916Z,9.30
2023-04-08T22:44:51.855Z,9.30
2023-04-08T22:47:18.948Z,9.20
2023-04-08T22:49:46.047Z,9.30
2023-04-08T22:52:13.012Z,9.20
2023-04-08T22:57:07.384Z,9.00
2023-04-08T22:59:34.309Z,9.10
2023-04-08T23:02:01.382Z,9.50
2023-04-08T23:04:28.689Z,9.00
2023-04-08T23:06:55.826Z,9.00
2023-04-08T23:09:24.539Z,9.10
2023-04-08T23:11:51.458Z,9.10
2023-04-08T23:14:18.431Z,8.50
2023-04-08T23:16:45.636Z,9.10
2023-04-08T23:19:12.724Z,9.10
2023-04-08T23:21:40.395Z,9.00
2023-04-08T23:24:08.042Z,9.00
2023-04-08T23:26:35.119Z,9.70
2023-04-08T23:29:02.232Z,9.10
2023-04-08T23:31:29.385Z,9.10
2023-04-08T23:33:56.361Z,8.90
2023-04-08T23:36:23.330Z,9.80
2023-04-08T23:38:51.103Z,9.10
2023-04-08T23:41:18.186Z,9.00
2023-04-08T23:43:46.759Z,9.00
2023-04-08T23:46:13.875Z,8.90
2023-04-08T23:51:08.410Z,8.90
2023-04-08T23:53:35.448Z,9.20
2023-04-08T23:56:09.808Z,8.90
2023-04-08T23:58:36.964Z,9.00
